Time;durP1;ratioP1;P1;durP2;ratioP2;P2;SDS_P1;SDS_P2;PMS_P1;PMS_P2;Temp;Humidity;BMP_temperature;BMP_pressure;BME280_temperature;BME280_humidity;BME280_pressure;Samples;Min_cycle;Max_cycle;Signal;HPM_P1;HPM_P2
2022/08/24 00:02:21;;;;;;;;;4.75;4.00;;;;;25.17;52.44;100986.00;5117009;27;45291;-51
2022/08/24 00:04:47;;;;;;;;;6.50;6.50;;;;;25.21;52.76;100995.50;5116179;27;45307;-49
2022/08/24 00:07:12;;;;;;;;;9.75;9.25;;;;;25.24;53.17;100997.69;5117662;27;45246;-50
2022/08/24 00:09:37;;;;;;;;;14.25;13.00;;;;;25.25;52.63;100996.56;5116998;27;46519;-51
2022/08/24 00:12:04;;;;;;;;;5.50;5.50;;;;;24.97;53.09;100975.94;5117235;27;45397;-50
2022/08/24 00:14:29;;;;;;;;;7.60;7.60;;;;;25.15;53.07;100997.56;5116999;27;45358;-52
2022/08/24 00:16:56;;;;;;;;;8.50;6.50;;;;;25.15;52.83;101000.38;5117019;27;45416;-52
2022/08/24 00:19:22;;;;;;;;;8.00;8.00;;;;;25.03;53.03;100983.16;5116700;27;45507;-50
2022/08/24 00:21:47;;;;;;;;;8.25;7.00;;;;;25.12;53.58;100997.31;5117018;27;45531;-53
2022/08/24 00:24:13;;;;;;;;;7.50;7.50;;;;;24.98;53.38;100974.81;5116479;27;45421;-51
2022/08/24 00:26:38;;;;;;;;;6.00;6.00;;;;;25.02;53.52;100982.31;5116521;27;45373;-51
2022/08/24 00:29:04;;;;;;;;;6.25;5.25;;;;;25.06;53.80;100996.56;5116718;27;45898;-51
2022/08/24 00:31:30;;;;;;;;;6.00;5.00;;;;;25.00;53.57;100998.63;5116496;27;45618;-51
2022/08/24 00:33:55;;;;;;;;;5.00;5.00;;;;;25.00;53.88;101006.22;5116595;27;45220;-49
2022/08/24 00:36:22;;;;;;;;;0.00;0.00;;;;;24.98;54.20;100997.28;5116659;27;45600;-49
2022/08/24 00:38:48;;;;;;;;;6.00;6.00;;;;;24.85;53.80;100982.84;5115296;27;46280;-49
2022/08/24 00:41:14;;;;;;;;;5.00;5.00;;;;;24.97;54.70;101004.03;5116639;27;45279;-53
2022/08/24 00:43:53;;;;;;;;;5.00;4.25;;;;;25.06;54.28;101009.78;5115358;27;45387;-49
2022/08/24 00:46:20;;;;;;;;;6.00;3.20;;;;;24.87;54.25;100979.75;5115572;27;45427;-55
2022/08/24 00:48:47;;;;;;;;;4.00;4.00;;;;;24.97;54.85;100998.41;5115362;27;45404;-53
2022/08/24 00:51:19;;;;;;;;;4.80;3.80;;;;;24.84;54.72;100985.94;5116383;27;45216;-50
2022/08/24 00:53:57;;;;;;;;;5.60;5.60;;;;;24.88;54.84;100996.25;5098565;27;45352;-51
2022/08/24 00:56:28;;;;;;;;;6.80;6.80;;;;;24.84;54.94;100992.41;5115370;27;45479;-49
2022/08/24 00:58:59;;;;;;;;;4.60;4.40;;;;;24.86;55.08;100989.31;5115176;27;46114;-50
2022/08/24 01:01:25;;;;;;;;;4.80;4.20;;;;;24.81;54.99;100995.81;5116506;27;45308;-54
2022/08/24 01:03:51;;;;;;;;;3.00;3.00;;;;;24.76;54.94;100993.06;5097742;27;45373;-51
2022/08/24 01:06:16;;;;;;;;;4.00;4.00;;;;;24.85;55.02;100994.06;5116655;27;45481;-52
2022/08/24 01:08:43;;;;;;;;;5.75;3.50;;;;;24.81;55.13;100989.38;5114730;27;46445;-51
2022/08/24 01:11:13;;;;;;;;;4.40;4.40;;;;;24.70;55.09;100967.03;5114681;27;45460;-49
2022/08/24 01:13:42;;;;;;;;;6.00;6.00;;;;;24.83;55.29;100999.16;5114972;27;45240;-50
2022/08/24 01:16:07;;;;;;;;;4.20;4.20;;;;;24.77;55.76;101003.97;5114787;27;45506;-52
2022/08/24 01:18:51;;;;;;;;;5.50;4.50;;;;;24.72;55.87;100986.38;5114868;27;45720;-48
2022/08/24 01:21:16;;;;;;;;;4.00;4.00;;;;;24.74;55.52;100995.31;5115030;27;45680;-50
2022/08/24 01:23:44;;;;;;;;;6.25;5.00;;;;;24.70;56.02;100988.66;5116079;27;45742;-50
2022/08/24 01:26:11;;;;;;;;;3.20;2.40;;;;;24.75;55.83;100991.38;5116173;27;45348;-51
2022/08/24 01:28:38;;;;;;;;;3.00;3.00;;;;;24.75;55.75;100995.03;5115411;27;46327;-49
2022/08/24 01:31:04;;;;;;;;;2.20;2.20;;;;;24.72;56.09;100987.22;5114922;27;45349;-50
2022/08/24 01:33:30;;;;;;;;;4.25;3.25;;;;;24.75;55.78;100997.00;5116140;27;45402;-53
2022/08/24 01:36:07;;;;;;;;;5.00;4.00;;;;;24.68;56.14;101005.78;5116241;27;45455;-55
2022/08/24 01:38:33;;;;;;;;;5.60;3.00;;;;;24.71;55.86;100999.56;5115524;27;46254;-53
2022/08/24 01:41:01;;;;;;;;;3.00;3.00;;;;;24.73;56.17;101000.13;5100996;27;45395;-49
2022/08/24 01:43:26;;;;;;;;;3.80;3.60;;;;;24.72;56.04;100995.66;5119604;27;45286;-52
2022/08/24 01:45:52;;;;;;;;;4.25;3.50;;;;;24.77;55.90;101003.97;5118539;27;45212;-54
2022/08/24 01:48:18;;;;;;;;;3.00;3.00;;;;;24.80;55.94;101005.38;5119557;27;45827;-50
2022/08/24 01:50:44;;;;;;;;;3.00;3.00;;;;;24.76;55.91;100999.50;5118106;27;45310;-52
2022/08/24 01:53:09;;;;;;;;;3.00;3.00;;;;;24.64;55.87;101007.53;5117600;27;45865;-51
2022/08/24 01:55:35;;;;;;;;;3.75;2.00;;;;;24.60;56.44;100998.06;5119681;27;45529;-55
2022/08/24 01:58:00;;;;;;;;;2.50;2.50;;;;;24.51;56.35;100981.06;5078287;27;46071;-52
2022/08/24 02:00:26;;;;;;;;;3.00;3.00;;;;;24.51;56.42;100981.06;5097408;27;45298;-50
2022/08/24 02:02:51;;;;;;;;;2.75;2.75;;;;;24.61;56.87;100997.75;5097322;27;45435;-51
2022/08/24 02:05:17;;;;;;;;;2.00;2.00;;;;;24.61;56.88;100994.13;5114804;27;45516;-51
2022/08/24 02:07:43;;;;;;;;;4.75;3.00;;;;;24.57;56.54;100993.03;5098631;27;46512;-51
2022/08/24 02:10:11;;;;;;;;;3.25;3.25;;;;;24.38;56.95;100977.00;5098251;27;45271;-49
2022/08/24 02:12:38;;;;;;;;;2.60;2.60;;;;;24.50;56.70;100985.81;5098788;27;45247;-52
2022/08/24 02:15:06;;;;;;;;;3.80;3.80;;;;;24.58;56.33;100991.91;5097400;27;45555;-51
2022/08/24 02:17:32;;;;;;;;;4.60;3.00;;;;;24.57;56.79;100993.03;5098224;27;45437;-50
2022/08/24 02:19:57;;;;;;;;;4.00;4.00;;;;;24.48;56.57;100976.88;5097280;27;46023;-51
2022/08/24 02:22:23;;;;;;;;;3.75;3.75;;;;;24.50;56.41;100997.03;5098257;27;45361;-51
2022/08/24 02:24:48;;;;;;;;;3.00;3.00;;;;;24.54;56.78;100990.84;5098333;27;45577;-50
2022/08/24 02:27:15;;;;;;;;;3.00;3.00;;;;;24.45;56.86;100997.09;5097928;27;46259;-51
2022/08/24 02:29:41;;;;;;;;;3.20;3.00;;;;;24.52;57.02;101001.50;5098508;27;45311;-50
2022/08/24 02:32:06;;;;;;;;;3.50;3.00;;;;;24.46;56.44;100989.53;5098231;27;45374;-54
2022/08/24 02:34:32;;;;;;;;;3.25;3.00;;;;;24.53;56.54;100995.59;5098272;27;45520;-51
2022/08/24 02:36:58;;;;;;;;;5.00;4.25;;;;;24.34;56.80;100971.16;5098308;27;46340;-50
2022/08/24 02:39:24;;;;;;;;;3.40;3.40;;;;;24.28;57.39;100965.94;5097803;27;45379;-49
2022/08/24 02:41:50;;;;;;;;;4.00;4.00;;;;;24.39;57.22;100994.69;5098105;27;45366;-50
2022/08/24 02:44:16;;;;;;;;;2.20;2.20;;;;;24.27;57.13;100975.50;5104432;27;45441;-51
2022/08/24 02:46:41;;;;;;;;;3.00;3.00;;;;;24.30;57.34;100994.50;5118553;27;45510;-50
2022/08/24 02:49:07;;;;;;;;;3.25;3.25;;;;;24.31;57.25;100985.81;5118169;27;45227;-53
2022/08/24 02:51:33;;;;;;;;;5.00;3.00;;;;;24.30;57.34;100995.34;5118167;27;45314;-54
2022/08/24 02:53:59;;;;;;;;;5.00;4.00;;;;;24.23;57.35;100984.47;5118959;27;45385;-51
2022/08/24 02:56:25;;;;;;;;;3.00;3.00;;;;;24.29;57.66;100992.84;5118125;27;45860;-50
2022/08/24 02:58:51;;;;;;;;;4.40;3.00;;;;;24.23;57.65;100990.09;5116847;27;45411;-50
2022/08/24 03:01:16;;;;;;;;;3.60;3.00;;;;;24.32;57.01;101000.63;5118653;27;45345;-52
2022/08/24 03:03:42;;;;;;;;;4.00;4.00;;;;;24.35;56.89;100986.03;5118144;27;45411;-53
2022/08/24 03:06:07;;;;;;;;;3.25;3.25;;;;;24.42;56.92;100994.91;5118109;27;46303;-51
2022/08/24 03:08:33;;;;;;;;;3.25;3.25;;;;;24.44;56.82;100992.63;5117852;27;45397;-48
2022/08/24 03:10:59;;;;;;;;;3.50;3.50;;;;;24.44;57.03;100989.81;5118815;27;45782;-50
2022/08/24 03:13:26;;;;;;;;;4.00;4.00;;;;;24.39;57.10;100984.31;5118051;27;45440;-53
2022/08/24 03:15:52;;;;;;;;;4.00;4.00;;;;;24.44;57.14;100991.81;5116554;27;45590;-54
2022/08/24 03:18:18;;;;;;;;;5.80;4.60;;;;;24.45;56.61;100987.88;5118115;27;45397;-54
2022/08/24 03:20:43;;;;;;;;;3.00;3.00;;;;;24.42;57.37;100994.06;5118085;27;45434;-52
2022/08/24 03:23:09;;;;;;;;;3.00;3.00;;;;;24.41;57.05;100996.06;5116884;27;45460;-53
2022/08/24 03:25:34;;;;;;;;;4.25;4.25;;;;;24.27;57.01;100967.88;5117805;27;45478;-54
2022/08/24 03:28:01;;;;;;;;;3.25;3.25;;;;;24.34;56.80;100985.19;5117750;27;45369;-54
2022/08/24 03:30:27;;;;;;;;;5.40;5.20;;;;;24.35;56.89;100983.22;5116565;27;45258;-51
2022/08/24 03:32:52;;;;;;;;;2.75;2.75;;;;;24.36;56.78;100990.50;5117891;27;46075;-54
2022/08/24 03:35:20;;;;;;;;;3.00;3.00;;;;;24.28;57.66;100988.38;5117761;27;45451;-50
2022/08/24 03:37:46;;;;;;;;;4.40;3.40;;;;;24.16;57.76;100991.59;5117375;27;45396;-52
2022/08/24 03:40:12;;;;;;;;;3.60;3.60;;;;;24.00;57.73;100979.69;5133767;27;45382;-52
2022/08/24 03:42:38;;;;;;;;;4.00;3.00;;;;;24.11;58.14;100989.66;5117916;27;45273;-50
2022/08/24 03:45:04;;;;;;;;;3.40;2.80;;;;;24.03;58.21;100981.88;5104720;27;45993;-52
2022/08/24 03:47:29;;;;;;;;;4.80;3.60;;;;;24.04;58.37;100987.22;5096940;27;45414;-51
2022/08/24 03:49:55;;;;;;;;;4.25;4.25;;;;;23.96;58.17;100987.88;5096964;27;45333;-53
2022/08/24 03:52:20;;;;;;;;;4.75;4.75;;;;;24.03;57.99;100979.94;5097203;27;45491;-50
2022/08/24 03:54:46;;;;;;;;;5.50;5.50;;;;;23.65;58.22;100940.56;5096561;27;45714;-53
2022/08/24 03:57:12;;;;;;;;;5.00;4.00;;;;;23.76;58.85;100955.28;5097104;27;45309;-51
2022/08/24 03:59:38;;;;;;;;;6.20;6.20;;;;;23.87;58.41;100984.88;5097188;27;45684;-51
2022/08/24 04:02:03;;;;;;;;;5.25;5.25;;;;;23.86;58.87;100980.41;5096338;27;45493;-52
2022/08/24 04:04:30;;;;;;;;;4.50;4.50;;;;;23.72;58.59;100954.19;5096501;27;45342;-49
2022/08/24 04:06:56;;;;;;;;;4.00;4.00;;;;;23.77;58.68;100980.22;5096690;27;45419;-53
2022/08/24 04:09:22;;;;;;;;;5.00;4.00;;;;;23.83;58.68;100983.78;5096749;27;45473;-50
2022/08/24 04:11:47;;;;;;;;;5.75;5.00;;;;;23.78;59.11;100979.06;5096913;27;45620;-48
2022/08/24 04:14:14;;;;;;;;;4.00;4.00;;;;;23.81;58.79;100983.25;5094927;27;46375;-51
2022/08/24 04:16:39;;;;;;;;;4.40;4.40;;;;;23.57;59.11;100956.03;5096454;27;45413;-52
2022/08/24 04:19:05;;;;;;;;;3.25;3.25;;;;;23.62;59.11;100974.75;5096326;27;45404;-53
2022/08/24 04:21:32;;;;;;;;;5.00;5.00;;;;;23.65;59.24;100980.59;5097092;27;45306;-52
2022/08/24 04:23:58;;;;;;;;;3.40;3.40;;;;;23.55;59.09;100961.09;5094943;27;46402;-50
2022/08/24 04:26:24;;;;;;;;;4.75;4.75;;;;;23.40;59.36;100948.06;5096508;27;45219;-50
2022/08/24 04:28:50;;;;;;;;;3.80;3.80;;;;;23.59;59.75;100976.19;5095990;27;45384;-53
2022/08/24 04:31:17;;;;;;;;;2.80;2.80;;;;;23.70;59.06;100985.34;5096233;27;45523;-50
2022/08/24 04:33:42;;;;;;;;;5.40;4.60;;;;;23.67;59.52;100980.31;5094669;27;46010;-51
2022/08/24 04:36:08;;;;;;;;;2.25;2.25;;;;;23.61;59.53;100982.31;5095658;27;45799;-53
2022/08/24 04:38:34;;;;;;;;;5.50;4.50;;;;;23.47;59.51;100986.94;5112073;27;45854;-49
2022/08/24 04:40:59;;;;;;;;;4.00;4.00;;;;;23.53;59.89;100971.78;5095010;27;45567;-48
2022/08/24 04:43:25;;;;;;;;;5.00;4.75;;;;;23.60;59.49;100985.41;5094438;27;47363;-49
2022/08/24 04:45:51;;;;;;;;;4.50;4.00;;;;;23.55;59.35;100967.50;5114941;27;45675;-52
2022/08/24 04:48:17;;;;;;;;;5.25;5.25;;;;;23.62;59.58;100981.19;5116664;27;45274;-50
2022/08/24 04:50:43;;;;;;;;;6.00;5.00;;;;;23.59;59.44;100966.94;5116939;27;45719;-54
2022/08/24 04:53:09;;;;;;;;;5.00;5.00;;;;;23.45;59.29;100928.41;5114605;27;46512;-53
2022/08/24 04:55:44;;;;;;;;;7.20;7.20;;;;;23.63;58.76;100957.66;5116529;27;46045;-52
2022/08/24 04:58:11;;;;;;;;;8.00;6.80;;;;;23.65;59.53;100960.97;5115072;27;45424;-50
2022/08/24 05:00:37;;;;;;;;;7.20;7.20;;;;;23.60;59.04;100957.41;5115470;27;45403;-52
2022/08/24 05:03:02;;;;;;;;;5.00;5.00;;;;;23.58;60.07;100973.69;5116351;27;45493;-49
2022/08/24 05:05:28;;;;;;;;;8.00;7.00;;;;;23.51;59.47;100952.44;5115633;27;45475;-50
2022/08/24 05:07:53;;;;;;;;;9.00;7.25;;;;;23.69;59.80;100978.88;5116627;27;45239;-53
2022/08/24 05:10:19;;;;;;;;;8.00;8.00;;;;;23.69;59.32;100978.88;5116153;27;45447;-50
2022/08/24 05:12:45;;;;;;;;;6.60;6.00;;;;;23.61;59.63;100956.28;5115992;27;45663;-50
2022/08/24 05:15:11;;;;;;;;;5.80;5.80;;;;;23.80;58.88;100979.59;5119052;27;45249;-50
2022/08/24 05:17:39;;;;;;;;;7.00;7.00;;;;;23.73;59.33;100981.94;5119538;27;45196;-49
2022/08/24 05:20:07;;;;;;;;;6.20;6.20;;;;;23.51;58.99;100932.84;5119583;27;45694;-52
2022/08/24 05:22:33;;;;;;;;;7.20;7.20;;;;;23.69;59.86;100980.84;5119399;27;46547;-51
2022/08/24 05:24:59;;;;;;;;;7.75;7.75;;;;;23.62;58.91;100960.72;5119675;27;45530;-50
2022/08/24 05:27:24;;;;;;;;;7.75;7.75;;;;;23.78;59.63;100986.63;5119829;27;45315;-51
2022/08/24 05:29:53;;;;;;;;;7.50;7.25;;;;;23.58;59.79;100991.31;5120037;27;45146;-50
2022/08/24 05:32:18;;;;;;;;;6.00;6.00;;;;;23.53;60.10;100995.00;5135944;27;46319;-50
2022/08/24 05:34:44;;;;;;;;;6.25;6.25;;;;;23.55;60.06;100991.91;5119300;27;45219;-49
2022/08/24 05:37:09;;;;;;;;;6.00;5.75;;;;;23.59;59.89;100994.94;5120019;27;45338;-49
2022/08/24 05:39:35;;;;;;;;;5.50;5.50;;;;;23.41;59.95;100952.53;5119799;27;45209;-50
2022/08/24 05:42:00;;;;;;;;;6.75;5.75;;;;;23.67;59.81;100991.50;5119597;27;45855;-54
2022/08/24 05:44:26;;;;;;;;;6.00;6.00;;;;;23.79;59.20;100993.91;5112577;27;45249;-53
2022/08/24 05:46:53;;;;;;;;;8.00;7.00;;;;;23.82;59.33;100987.72;5099248;27;45425;-53
2022/08/24 05:49:18;;;;;;;;;5.20;5.20;;;;;23.87;59.10;100998.03;5099244;27;45595;-53
2022/08/24 05:51:43;;;;;;;;;6.75;6.75;;;;;23.93;59.19;100986.50;5098461;27;45713;-53
2022/08/24 05:54:10;;;;;;;;;7.50;6.50;;;;;23.92;58.50;100978.38;5098608;27;45314;-53
2022/08/24 05:56:35;;;;;;;;;5.40;5.40;;;;;23.99;58.32;100994.81;5098936;27;45205;-51
2022/08/24 05:59:01;;;;;;;;;7.75;7.50;;;;;24.00;58.29;100991.72;5099574;27;45431;-50
2022/08/24 06:01:26;;;;;;;;;8.50;5.50;;;;;24.02;58.42;100988.63;5098808;27;45589;-51
2022/08/24 06:03:52;;;;;;;;;9.50;7.00;;;;;23.92;58.38;100973.63;5098836;27;45414;-51
2022/08/24 06:06:18;;;;;;;;;9.00;8.00;;;;;24.10;58.12;100996.41;5099129;27;45329;-51
2022/08/24 06:08:48;;;;;;;;;6.00;6.00;;;;;24.07;57.87;100991.41;5098849;27;45302;-52
2022/08/24 06:11:24;;;;;;;;;8.00;6.80;;;;;24.09;58.09;100994.75;5099028;27;45866;-53
2022/08/24 06:13:51;;;;;;;;;9.00;8.00;;;;;23.98;58.32;100977.19;5098610;27;45430;-53
2022/08/24 06:16:17;;;;;;;;;5.80;5.80;;;;;24.13;58.22;100995.84;5074067;27;45645;-53
2022/08/24 06:18:42;;;;;;;;;8.75;7.25;;;;;24.16;57.90;100997.22;5099156;27;45299;-51
2022/08/24 06:21:13;;;;;;;;;10.25;9.75;;;;;24.09;57.69;100978.78;5098472;27;47048;-49
2022/08/24 06:23:39;;;;;;;;;8.00;8.00;;;;;24.12;57.67;100988.53;5098726;27;45479;-52
2022/08/24 06:28:49;;;;;;;;;7.20;7.20;;;;;24.22;57.49;101005.25;5098270;27;45445;-54
2022/08/24 06:31:14;;;;;;;;;7.00;7.00;;;;;24.24;57.43;101010.56;5114418;27;45715;-50
2022/08/24 06:33:40;;;;;;;;;8.50;7.25;;;;;24.11;57.49;100986.88;5098309;27;45480;-52
2022/08/24 06:36:06;;;;;;;;;9.75;9.50;;;;;24.24;57.60;101004.97;5114013;27;45331;-54
2022/08/24 06:38:31;;;;;;;;;7.75;7.75;;;;;23.98;57.45;100957.56;5098553;27;45409;-54
2022/08/24 06:40:57;;;;;;;;;10.75;10.00;;;;;24.19;57.86;100996.59;5097388;27;45703;-50
2022/08/24 06:43:23;;;;;;;;;8.25;7.25;;;;;24.15;57.69;101004.78;5098107;27;45317;-49
2022/08/24 06:45:49;;;;;;;;;11.80;8.00;;;;;24.19;57.79;101002.22;5111985;27;45492;-49
2022/08/24 06:48:15;;;;;;;;;4.00;4.00;;;;;24.23;57.49;100995.69;5118617;27;45354;-48
2022/08/24 06:50:40;;;;;;;;;6.00;6.00;;;;;24.25;57.52;100995.41;5118461;27;46839;-52
2022/08/24 06:53:06;;;;;;;;;6.50;6.25;;;;;24.26;56.89;100987.84;5117950;27;45795;-54
2022/08/24 06:55:31;;;;;;;;;8.75;8.75;;;;;24.38;56.73;101001.44;5118545;27;45378;-49
2022/08/24 06:57:57;;;;;;;;;5.50;5.50;;;;;24.39;56.38;100997.47;5118790;27;45346;-49
2022/08/24 07:00:23;;;;;;;;;7.25;6.25;;;;;24.40;56.04;100999.16;5118222;27;46449;-50
2022/08/24 07:02:50;;;;;;;;;5.00;5.00;;;;;24.27;56.00;100975.50;5118612;27;45794;-53
2022/08/24 07:05:15;;;;;;;;;7.80;6.60;;;;;24.42;56.41;100997.72;5118314;27;45682;-52
2022/08/24 07:07:40;;;;;;;;;5.25;5.25;;;;;24.45;55.38;101002.72;5118958;27;45355;-51
2022/08/24 07:10:08;;;;;;;;;4.00;4.00;;;;;24.32;55.24;100979.06;5117838;27;45399;-50
2022/08/24 07:12:34;;;;;;;;;7.40;5.20;;;;;24.46;55.78;100998.78;5118342;27;45317;-51
2022/08/24 07:15:00;;;;;;;;;6.20;4.00;;;;;24.44;55.57;100998.25;5117036;27;45310;-50
2022/08/24 07:17:25;;;;;;;;;4.75;4.75;;;;;24.49;55.09;100997.38;5107939;27;45823;-51
2022/08/24 07:19:50;;;;;;;;;7.25;5.00;;;;;24.50;54.63;100996.22;5115470;27;45422;-50
2022/08/24 07:22:16;;;;;;;;;5.00;4.25;;;;;24.46;54.83;101001.59;5116829;27;45400;-49
2022/08/24 07:24:41;;;;;;;;;5.00;5.00;;;;;24.50;55.22;101005.47;5118187;27;45345;-50
2022/08/24 07:27:07;;;;;;;;;4.75;4.00;;;;;24.47;55.20;100997.66;5118425;27;45309;-50
2022/08/24 07:29:32;;;;;;;;;4.75;4.00;;;;;24.56;54.97;101002.59;5118008;27;46960;-53
2022/08/24 07:31:58;;;;;;;;;4.00;4.00;;;;;24.57;54.68;101001.44;5117170;27;45358;-50
2022/08/24 07:34:23;;;;;;;;;5.00;4.00;;;;;24.67;54.62;101012.53;5118009;27;45406;-52
2022/08/24 07:36:51;;;;;;;;;5.60;5.00;;;;;24.63;54.86;101005.84;5117171;27;45457;-50
2022/08/24 07:39:17;;;;;;;;;6.80;5.40;;;;;24.70;54.55;101011.94;5117530;27;46810;-50
2022/08/24 07:41:43;;;;;;;;;4.75;4.75;;;;;24.71;54.86;101018.38;5117507;27;45333;-51
2022/08/24 07:44:09;;;;;;;;;3.60;3.00;;;;;24.77;54.04;101017.19;5118112;27;45302;-51
2022/08/24 07:46:35;;;;;;;;;6.00;6.00;;;;;24.78;53.89;101022.47;5098941;27;45239;-50
2022/08/24 07:49:00;;;;;;;;;5.25;5.25;;;;;24.82;54.25;101016.31;5097348;27;46435;-49
2022/08/24 07:51:26;;;;;;;;;5.25;5.00;;;;;24.68;54.47;100997.38;5096323;27;45435;-51
2022/08/24 07:53:51;;;;;;;;;6.00;4.25;;;;;24.87;54.18;101011.44;5097206;27;45371;-51
2022/08/24 07:56:17;;;;;;;;;4.75;4.75;;;;;24.93;54.78;101008.56;5097086;27;45536;-48
2022/08/24 07:58:43;;;;;;;;;4.00;4.00;;;;;25.03;53.79;101020.47;5093760;27;46075;-51
2022/08/24 08:01:09;;;;;;;;;4.00;4.00;;;;;24.94;53.52;101005.47;5103059;27;45321;-50
2022/08/24 08:03:35;;;;;;;;;4.00;4.00;;;;;25.14;53.45;101028.75;5077013;27;45480;-48
2022/08/24 08:06:05;;;;;;;;;5.00;5.00;;;;;25.15;53.21;101030.41;5097132;27;45599;-49
2022/08/24 08:08:35;;;;;;;;;5.40;3.80;;;;;25.13;53.57;101030.72;5098916;27;46734;-51
2022/08/24 08:11:02;;;;;;;;;4.00;4.00;;;;;25.22;54.01;101027.22;5099521;27;45291;-47
2022/08/24 08:13:29;;;;;;;;;3.60;3.60;;;;;25.25;53.50;101032.22;5117047;27;45212;-48
2022/08/24 08:15:55;;;;;;;;;5.00;5.00;;;;;25.32;52.97;101038.28;5105469;27;45563;-48
2022/08/24 08:18:21;;;;;;;;;4.40;4.40;;;;;25.18;52.98;100998.91;5096323;27;47280;-49
2022/08/24 08:20:47;;;;;;;;;3.75;3.50;;;;;25.45;52.63;101033.84;5090714;27;45417;-47
2022/08/24 08:25:57;;;;;;;;;3.00;3.00;;;;;25.44;52.26;101009.72;5095003;27;45441;-50
2022/08/24 08:28:23;;;;;;;;;5.50;2.50;;;;;25.62;52.33;101036.16;5108761;27;45501;-51
2022/08/24 08:30:49;;;;;;;;;3.00;3.00;;;;;25.65;52.47;101037.50;5115290;27;45481;-49
2022/08/24 08:33:14;;;;;;;;;4.50;3.00;;;;;25.73;51.72;101036.81;5094911;27;45631;-53
2022/08/24 08:35:41;;;;;;;;;4.00;4.00;;;;;25.78;52.00;101033.88;5101513;27;45522;-51
2022/08/24 08:38:07;;;;;;;;;6.40;3.40;;;;;25.82;51.40;101045.38;5115112;27;46310;-47
2022/08/24 08:40:55;;;;;;;;;3.40;3.00;;;;;25.75;51.29;101019.63;5116745;27;45495;-49
2022/08/24 08:43:36;;;;;;;;;3.80;3.80;;;;;25.94;50.75;101039.25;5115710;27;45387;-53
2022/08/24 08:46:23;;;;;;;;;3.00;3.00;;;;;26.02;50.89;101038.53;5102943;27;45571;-51
2022/08/24 08:49:36;;;;;;;;;5.20;5.20;;;;;26.08;49.83;101037.28;5097460;27;46096;-52
2022/08/24 08:52:14;;;;;;;;;5.00;3.80;;;;;26.17;49.62;101034.59;5089786;27;45522;-52
2022/08/24 08:55:08;;;;;;;;;4.20;3.00;;;;;26.24;48.85;101034.19;5098729;27;45559;-53
2022/08/24 08:58:05;;;;;;;;;2.60;2.00;;;;;26.33;49.31;101037.97;5083266;27;45246;-52
2022/08/24 09:00:58;;;;;;;;;3.00;3.00;;;;;26.40;48.87;101026.28;5098711;27;45472;-56
2022/08/24 09:03:42;;;;;;;;;3.80;2.40;;;;;26.51;48.76;101032.50;5098274;27;45321;-49
2022/08/24 09:06:19;;;;;;;;;1.40;1.40;;;;;26.59;47.98;101026.16;5099515;27;45435;-52
2022/08/24 09:08:52;;;;;;;;;1.60;1.60;;;;;26.69;47.88;101032.72;5099687;27;45448;-53
2022/08/24 09:12:09;;;;;;;;;1.00;1.00;;;;;26.79;46.88;101026.88;5110789;27;46611;-53
2022/08/24 09:14:55;;;;;;;;;3.00;3.00;;;;;26.88;47.03;101029.75;5072151;27;45346;-53
2022/08/24 09:17:39;;;;;;;;;3.00;2.20;;;;;26.88;45.94;101024.09;5099517;27;45513;-53
2022/08/24 09:20:23;;;;;;;;;2.00;2.00;;;;;26.85;46.30;101028.41;5099273;27;45326;-49
2022/08/24 09:22:59;;;;;;;;;2.80;2.00;;;;;26.81;45.33;101024.56;5098119;27;46244;-56
2022/08/24 09:25:38;;;;;;;;;2.00;2.00;;;;;26.93;45.40;101033.31;5097492;27;45510;-51
2022/08/24 09:28:39;;;;;;;;;1.40;1.20;;;;;27.00;45.41;101030.06;5110743;27;45395;-56
2022/08/24 09:31:22;;;;;;;;;1.60;1.60;;;;;27.10;45.42;101030.97;5118173;27;45317;-52
2022/08/24 09:34:02;;;;;;;;;5.75;2.75;;;;;27.13;44.66;101036.81;5119777;27;47033;-55
2022/08/24 09:36:40;;;;;;;;;2.40;2.40;;;;;27.10;44.65;101033.81;5103255;27;45736;-55
2022/08/24 09:39:29;;;;;;;;;1.00;1.00;;;;;27.14;44.93;101034.81;5112732;27;45410;-55
2022/08/24 09:42:16;;;;;;;;;2.00;1.00;;;;;27.25;44.70;101041.06;5089185;27;45559;-55
2022/08/24 09:44:46;;;;;;;;;2.00;1.20;;;;;27.25;44.48;101032.59;5093748;27;45635;-53
2022/08/24 09:47:11;;;;;;;;;3.40;3.40;;;;;27.35;44.58;101037.97;5096687;27;45413;-50
2022/08/24 09:49:58;;;;;;;;;1.50;1.25;;;;;27.37;45.04;101032.84;5099220;27;45723;-55
2022/08/24 09:52:51;;;;;;;;;3.00;1.60;;;;;27.49;44.56;101037.06;5098632;27;45448;-52
2022/08/24 09:55:59;;;;;;;;;2.20;2.20;;;;;27.58;44.19;101024.75;5115421;27;46094;-53
2022/08/24 09:58:34;;;;;;;;;2.00;2.00;;;;;27.58;44.08;100998.56;5109295;27;45250;-53
2022/08/24 10:01:41;;;;;;;;;1.40;1.40;;;;;27.79;43.94;101020.56;5071273;27;45542;-55
2022/08/24 10:04:18;;;;;;;;;1.00;1.00;;;;;27.92;43.00;101025.28;5118539;27;45342;-54
2022/08/24 10:07:08;;;;;;;;;1.00;1.00;;;;;27.92;42.99;100996.22;5118499;27;46968;-55
2022/08/24 10:09:57;;;;;;;;;3.00;2.40;;;;;28.14;42.28;101023.53;5118013;27;45404;-55
2022/08/24 10:12:47;;;;;;;;;1.00;0.40;;;;;28.08;42.07;101007.91;5106906;27;45318;-56
2022/08/24 10:15:17;;;;;;;;;3.00;1.20;;;;;28.28;42.29;101015.00;5098745;27;45414;-55
2022/08/24 10:18:01;;;;;;;;;2.20;2.00;;;;;28.43;42.31;101005.22;5096761;27;45806;-53
2022/08/24 10:21:08;;;;;;;;;1.20;1.20;;;;;28.61;42.18;101005.28;5098011;27;45372;-54
2022/08/24 10:24:06;;;;;;;;;3.40;2.00;;;;;28.78;41.65;101012.94;5064456;27;45370;-52
2022/08/24 10:27:00;;;;;;;;;2.00;2.00;;;;;28.82;40.62;101008.31;5097382;27;45197;-54
2022/08/24 10:29:38;;;;;;;;;4.00;1.80;;;;;28.59;40.19;100962.44;5097859;27;46540;-51
2022/08/24 10:32:11;;;;;;;;;1.80;1.80;;;;;28.84;41.13;101008.81;5096523;27;45374;-54
2022/08/24 10:34:45;;;;;;;;;2.00;2.00;;;;;28.88;40.55;100994.88;5098047;27;45485;-52
2022/08/24 10:37:22;;;;;;;;;1.60;1.60;;;;;28.93;40.53;100992.72;5097834;27;45390;-51
2022/08/24 10:39:58;;;;;;;;;2.00;2.00;;;;;29.09;40.28;101003.53;5096830;27;46826;-54
2022/08/24 10:46:10;;;;;;;;;1.40;1.40;;;;;29.15;39.99;100999.38;5033295;28;45442;-52
2022/08/24 10:48:51;;;;;;;;;0.80;0.80;;;;;29.07;39.67;100998.22;5058918;27;45475;-55
2022/08/24 10:51:44;;;;;;;;;0.60;0.60;;;;;29.12;39.94;100994.38;5100300;27;46497;-53
2022/08/24 10:54:10;;;;;;;;;2.00;2.00;;;;;29.17;39.64;100997.03;5114439;27;45475;-54
2022/08/24 10:56:52;;;;;;;;;2.00;1.60;;;;;29.30;39.56;100998.00;5100320;27;45404;-54
2022/08/24 10:59:39;;;;;;;;;1.00;1.00;;;;;29.42;39.14;100990.84;5099828;27;45363;-52
2022/08/24 11:02:10;;;;;;;;;0.00;0.00;;;;;29.51;39.00;100966.28;5100715;27;45910;-54
2022/08/24 11:04:36;;;;;;;;;1.00;1.00;;;;;29.69;38.63;100984.00;5079230;27;45436;-55
2022/08/24 11:07:08;;;;;;;;;1.00;1.00;;;;;29.68;39.10;100978.69;5097455;27;45414;-54
2022/08/24 11:09:54;;;;;;;;;2.00;2.00;;;;;29.43;38.83;100941.63;5097702;27;45322;-53
2022/08/24 11:12:35;;;;;;;;;1.40;1.40;;;;;29.63;38.80;100968.41;5097089;27;45857;-51
2022/08/24 11:15:18;;;;;;;;;1.80;1.80;;;;;29.66;38.79;100955.59;5097514;27;45241;-53
2022/08/24 11:17:56;;;;;;;;;1.00;1.00;;;;;29.73;39.13;100955.88;5097103;27;45344;-51
2022/08/24 11:20:38;;;;;;;;;1.80;1.80;;;;;29.83;39.19;100960.34;5097751;27;45334;-55
2022/08/24 11:23:21;;;;;;;;;3.40;2.20;;;;;29.96;38.76;100964.09;5097192;27;45407;-52
2022/08/24 11:26:04;;;;;;;;;2.00;2.00;;;;;29.88;38.49;100932.69;5113401;27;45430;-51
2022/08/24 11:28:35;;;;;;;;;1.40;1.40;;;;;30.10;38.28;100944.91;5096269;27;45242;-52
2022/08/24 11:31:02;;;;;;;;;1.20;1.20;;;;;30.17;38.30;100941.56;5096282;27;45833;-53
2022/08/24 11:33:45;;;;;;;;;1.40;1.40;;;;;30.05;37.35;100922.47;5096093;27;45424;-50
2022/08/24 11:36:22;;;;;;;;;2.80;1.80;;;;;30.23;37.88;100950.69;5096093;27;45522;-49
2022/08/24 11:38:48;;;;;;;;;1.20;1.20;;;;;30.42;37.72;100944.59;5097095;27;45394;-53
2022/08/24 11:41:25;;;;;;;;;3.00;2.00;;;;;30.55;38.42;100936.97;5088998;27;45579;-55
2022/08/24 11:44:02;;;;;;;;;2.00;2.00;;;;;30.69;36.76;100928.25;5089248;27;50058;-53
2022/08/24 11:46:35;;;;;;;;;2.20;1.40;;;;;30.76;37.19;100930.50;5098894;27;45682;-52
2022/08/24 11:49:07;;;;;;;;;3.60;2.00;;;;;30.86;37.00;100913.09;5090829;27;45556;-55